Time;durP1;ratioP1;P1;durP2;ratioP2;P2;SDS_P1;SDS_P2;PMS_P1;PMS_P2;Temp;Humidity;BMP_temperature;BMP_pressure;BME280_temperature;BME280_humidity;BME280_pressure;Samples;Min_cycle;Max_cycle;Signal;HPM_P1;HPM_P2
2022/11/02 00:01:58;;;;;;;22.52;12.95;;;;;;;11.06;89.14;99003.03;1655231;86;25834;-63
2022/11/02 00:04:24;;;;;;;25.97;13.48;;;;;;;11.06;88.97;98997.00;1654816;86;25460;-63
2022/11/02 00:06:50;;;;;;;23.25;12.33;;;;;;;11.07;88.93;99013.70;1655312;86;25735;-63
2022/11/02 00:09:16;;;;;;;25.12;13.60;;;;;;;11.06;89.00;99014.01;1655416;86;25477;-64
2022/11/02 00:11:42;;;;;;;21.80;12.80;;;;;;;11.06;88.66;99015.38;1655247;86;28308;-63
2022/11/02 00:14:08;;;;;;;21.07;11.57;;;;;;;11.04;88.53;99017.06;1655348;86;25693;-63
2022/11/02 00:16:38;;;;;;;22.13;12.37;;;;;;;11.03;88.77;99020.34;1654903;86;25694;-63
2022/11/02 00:19:07;;;;;;;22.52;12.68;;;;;;;11.01;88.51;99014.38;1655255;86;26466;-64
2022/11/02 00:21:35;;;;;;;22.62;13.72;;;;;;;10.99;88.56;99015.23;1655128;86;25594;-63
2022/11/02 00:24:04;;;;;;;24.52;13.40;;;;;;;10.98;88.60;99015.00;1655040;86;28316;-64
2022/11/02 00:26:35;;;;;;;24.18;12.33;;;;;;;10.98;88.40;99021.03;1655186;86;25645;-64
2022/11/02 00:29:03;;;;;;;22.70;13.78;;;;;;;10.95;88.90;99012.05;1655275;86;25614;-64
2022/11/02 00:31:30;;;;;;;26.02;14.53;;;;;;;10.93;88.62;99012.35;1655534;86;26055;-64
2022/11/02 00:33:56;;;;;;;25.72;14.07;;;;;;;10.91;88.57;99015.98;1654875;86;25691;-64
2022/11/02 00:36:24;;;;;;;26.15;14.20;;;;;;;10.91;88.36;99018.72;1654726;86;27588;-63
2022/11/02 00:38:50;;;;;;;28.42;15.35;;;;;;;10.87;88.58;99018.52;1651752;86;25842;-64
2022/11/02 00:41:21;;;;;;;27.48;14.83;;;;;;;10.86;88.42;99018.27;1631192;88;25624;-64
2022/11/02 00:43:47;;;;;;;33.42;18.77;;;;;;;10.86;88.32;99015.53;1630930;88;25727;-63
2022/11/02 00:46:13;;;;;;;25.82;14.73;;;;;;;10.86;88.55;99020.19;1631172;88;25509;-64
2022/11/02 00:48:39;;;;;;;28.70;17.77;;;;;;;10.85;88.61;99016.63;1631205;88;27455;-63
2022/11/02 00:51:06;;;;;;;26.30;15.65;;;;;;;10.85;88.46;99011.14;1630726;88;25690;-64
2022/11/02 00:53:32;;;;;;;28.70;15.83;;;;;;;10.85;88.44;99019.37;1631195;88;25671;-63
2022/11/02 00:55:58;;;;;;;28.17;15.60;;;;;;;10.83;88.57;99020.25;1631010;88;25743;-64
2022/11/02 00:58:24;;;;;;;23.52;12.78;;;;;;;10.83;88.50;99018.87;1631371;88;25658;-63
2022/11/02 01:00:51;;;;;;;27.95;15.80;;;;;;;10.81;88.87;99020.28;1630684;88;27535;-64
2022/11/02 01:03:17;;;;;;;26.75;14.85;;;;;;;10.79;88.81;99022.78;1630763;88;25732;-63
2022/11/02 01:05:43;;;;;;;19.70;11.38;;;;;;;10.79;89.02;99021.96;1631165;87;25770;-64
2022/11/02 01:08:09;;;;;;;24.72;12.98;;;;;;;10.77;89.65;99029.12;1631213;88;25738;-64
2022/11/02 01:10:35;;;;;;;25.80;15.90;;;;;;;10.76;89.70;99024.77;1631138;88;25773;-64
2022/11/02 01:13:01;;;;;;;28.47;16.17;;;;;;;10.76;89.65;99028.88;1631069;88;27526;-63
2022/11/02 01:15:28;;;;;;;27.25;15.15;;;;;;;10.77;89.52;99028.33;1631018;87;25931;-64
2022/11/02 01:17:55;;;;;;;27.25;15.72;;;;;;;10.75;89.64;99032.75;1631263;87;25677;-64
2022/11/02 01:20:21;;;;;;;24.77;13.83;;;;;;;10.72;89.60;99030.61;1630778;88;25704;-64
2022/11/02 01:22:48;;;;;;;26.23;14.43;;;;;;;10.72;89.40;99030.61;1630832;88;25673;-64
2022/11/02 01:25:14;;;;;;;28.42;13.78;;;;;;;10.70;89.50;99042.43;1630788;88;27522;-64
2022/11/02 01:27:40;;;;;;;27.13;14.75;;;;;;;10.70;89.64;99038.88;1631114;87;25578;-64
2022/11/02 01:30:08;;;;;;;26.50;15.68;;;;;;;10.70;89.56;99034.76;1631086;88;25630;-64
2022/11/02 01:32:34;;;;;;;23.35;13.95;;;;;;;10.70;89.68;99036.95;1631142;88;25734;-64
2022/11/02 01:35:01;;;;;;;27.35;14.78;;;;;;;10.72;89.71;99033.36;1632016;86;25430;-64
2022/11/02 01:37:28;;;;;;;26.62;14.93;;;;;;;10.75;89.74;99023.15;1633480;87;27426;-64
2022/11/02 01:39:54;;;;;;;27.07;14.83;;;;;;;10.75;89.79;99019.04;1633354;87;25738;-64
2022/11/02 01:42:24;;;;;;;22.30;13.22;;;;;;;10.76;89.79;99023.94;1633720;87;25526;-64
2022/11/02 01:44:51;;;;;;;31.45;15.23;;;;;;;10.73;89.84;99012.22;1633807;87;26349;-64
2022/11/02 01:47:34;;;;;;;28.70;15.50;;;;;;;10.72;89.68;99017.45;1633496;87;25638;-64
2022/11/02 01:50:15;;;;;;;27.80;16.32;;;;;;;10.70;89.76;99016.94;1632264;87;27622;-64
2022/11/02 01:52:41;;;;;;;29.23;14.20;;;;;;;10.58;90.10;99010.61;1633646;87;25952;-64
2022/11/02 01:55:21;;;;;;;24.20;14.63;;;;;;;10.58;90.10;99010.61;1633715;87;25761;-64
2022/11/02 01:57:58;;;;;;;28.65;14.85;;;;;;;10.61;90.24;99025.08;1633403;87;25649;-64
2022/11/02 02:00:25;;;;;;;27.48;14.60;;;;;;;10.56;90.31;99025.19;1641039;87;25599;-64
2022/11/02 02:02:59;;;;;;;28.70;14.43;;;;;;;10.53;90.41;99026.05;1630011;87;28651;-64
2022/11/02 02:05:27;;;;;;;26.45;14.38;;;;;;;10.48;90.66;99016.55;1631628;87;25496;-64
2022/11/02 02:07:55;;;;;;;30.43;18.02;;;;;;;10.46;90.65;99031.13;1633600;87;25717;-64
2022/11/02 02:10:22;;;;;;;28.07;14.15;;;;;;;10.44;90.62;99029.75;1633147;87;25791;-64
2022/11/02 02:12:48;;;;;;;33.98;19.05;;;;;;;10.44;91.25;99030.57;1633358;87;25695;-64
2022/11/02 02:15:16;;;;;;;31.20;17.25;;;;;;;10.45;90.78;99035.51;1633797;87;27393;-64
2022/11/02 02:17:48;;;;;;;30.92;15.75;;;;;;;10.42;90.54;99033.62;1633374;87;25671;-64
2022/11/02 02:20:40;;;;;;;31.87;16.67;;;;;;;10.41;90.97;99027.07;1633103;87;25517;-64
2022/11/02 02:23:32;;;;;;;28.67;15.30;;;;;;;10.41;91.08;99031.18;1633091;87;25689;-64
2022/11/02 02:26:20;;;;;;;34.03;17.82;;;;;;;10.40;91.45;99028.98;1624483;87;25600;-63
2022/11/02 02:29:03;;;;;;;28.38;15.65;;;;;;;10.39;91.38;99035.59;1529435;92;27962;-63
2022/11/02 02:31:41;;;;;;;30.68;15.98;;;;;;;10.35;91.54;99029.10;1504614;94;25819;-65
2022/11/02 02:34:21;;;;;;;32.38;16.55;;;;;;;10.38;91.55;99036.72;1502408;93;25766;-65
2022/11/02 02:36:59;;;;;;;33.98;17.02;;;;;;;10.40;91.93;99030.36;1480087;96;25721;-65
2022/11/02 02:40:01;;;;;;;30.95;17.65;;;;;;;10.43;92.24;99033.06;1497430;95;25910;-65
2022/11/02 02:42:36;;;;;;;33.95;18.23;;;;;;;10.48;92.10;99028.08;1505669;95;27432;-65
2022/11/02 02:45:19;;;;;;;31.80;17.05;;;;;;;10.49;92.22;99029.69;1505592;95;26048;-65
2022/11/02 02:47:57;;;;;;;39.78;17.70;;;;;;;10.52;92.06;99032.65;1504862;95;25727;-65
2022/11/02 02:50:28;;;;;;;33.38;17.75;;;;;;;10.54;92.12;99034.51;1505254;95;25919;-65
2022/11/02 02:52:57;;;;;;;30.95;16.75;;;;;;;10.58;92.33;99032.53;1505746;95;25574;-65
2022/11/02 02:55:28;;;;;;;31.80;16.45;;;;;;;10.60;92.28;99032.50;1505406;95;27464;-65
2022/11/02 02:57:57;;;;;;;29.37;16.07;;;;;;;10.64;92.22;99034.88;1505648;95;25599;-65
2022/11/02 03:00:23;;;;;;;36.33;18.45;;;;;;;10.64;92.69;99038.17;1505748;95;25578;-65
2022/11/02 03:03:00;;;;;;;30.08;15.72;;;;;;;10.68;92.34;99044.66;1506029;95;26145;-65
2022/11/02 03:05:36;;;;;;;35.73;19.27;;;;;;;10.71;92.19;99035.82;1563729;88;25790;-65
2022/11/02 03:08:13;;;;;;;36.25;17.73;;;;;;;10.76;92.20;99044.50;1623032;87;27422;-65
2022/11/02 03:10:47;;;;;;;35.92;17.67;;;;;;;10.75;92.21;99039.59;1633671;87;25606;-65
2022/11/02 03:13:35;;;;;;;32.30;18.67;;;;;;;10.76;92.06;99045.88;1633457;87;25493;-65
2022/11/02 03:16:21;;;;;;;31.37;15.93;;;;;;;10.76;92.42;99043.13;1632046;87;25804;-65
2022/11/02 03:18:59;;;;;;;31.60;15.70;;;;;;;10.74;92.45;99045.38;1633670;87;25453;-65
2022/11/02 03:21:44;;;;;;;33.18;16.85;;;;;;;10.73;92.48;99054.16;1633568;86;28236;-65
2022/11/02 03:24:36;;;;;;;35.28;16.93;;;;;;;10.76;92.41;99053.55;1633457;87;25932;-65
2022/11/02 03:27:23;;;;;;;36.10;17.23;;;;;;;10.77;92.44;99054.38;1633458;87;25845;-65
2022/11/02 03:30:15;;;;;;;39.45;20.75;;;;;;;10.79;92.33;99053.48;1632967;87;25734;-65
2022/11/02 03:32:49;;;;;;;33.28;15.70;;;;;;;10.74;92.79;99050.87;1530859;92;25581;-65
2022/11/02 03:35:33;;;;;;;34.43;16.55;;;;;;;10.73;92.71;99044.56;1531348;92;27604;-65
2022/11/02 03:38:17;;;;;;;31.62;16.73;;;;;;;10.72;92.56;99045.69;1529774;92;25747;-65
2022/11/02 03:40:47;;;;;;;33.25;17.50;;;;;;;10.75;92.52;99054.67;1529218;92;25781;-65
2022/11/02 03:43:16;;;;;;;36.08;20.45;;;;;;;10.77;92.56;99053.79;1525554;92;26239;-65
2022/11/02 03:45:49;;;;;;;34.80;18.82;;;;;;;10.78;92.61;99055.98;1529194;92;25732;-65
2022/11/02 03:48:17;;;;;;;34.70;16.77;;;;;;;10.78;92.69;99051.33;1529146;92;27638;-65
2022/11/02 03:50:49;;;;;;;35.30;17.42;;;;;;;10.77;92.85;99048.89;1529448;92;25779;-65
2022/11/02 03:53:39;;;;;;;32.15;16.05;;;;;;;10.76;92.69;99054.92;1528478;92;25778;-65
2022/11/02 03:56:13;;;;;;;27.80;14.68;;;;;;;10.78;92.63;99060.09;1526911;93;26460;-64
2022/11/02 03:58:39;;;;;;;32.38;16.73;;;;;;;10.79;92.86;99052.94;1526746;93;25576;-64
2022/11/02 04:01:10;;;;;;;33.42;17.17;;;;;;;10.81;92.79;99054.00;1526542;93;27513;-64
2022/11/02 04:03:41;;;;;;;35.70;19.30;;;;;;;10.80;92.80;99057.88;1581692;87;25696;-65
2022/11/02 04:06:09;;;;;;;34.60;17.42;;;;;;;10.82;92.86;99064.42;1648171;86;25522;-65
2022/11/02 04:08:42;;;;;;;39.85;17.60;;;;;;;10.80;92.90;99061.98;1647939;87;26764;-65
2022/11/02 04:16:39;;;;;;;31.02;16.25;;;;;;;10.92;92.60;99065.58;1630608;88;25674;-64
2022/11/02 04:27:19;;;;;;;38.05;18.30;;;;;;;10.95;92.36;99065.52;1630775;88;25687;-64
2022/11/02 04:29:45;;;;;;;35.80;20.05;;;;;;;10.97;92.18;99066.03;1630748;87;25638;-65
2022/11/02 04:32:12;;;;;;;33.28;17.62;;;;;;;10.99;92.25;99063.78;1631257;87;25441;-64
2022/11/02 04:34:38;;;;;;;30.92;16.62;;;;;;;11.04;92.14;99064.50;1630780;88;25781;-65
2022/11/02 04:38:39;;;;;;;32.60;16.65;;;;;;;11.08;91.99;99070.75;1660667;86;25448;-65
2022/11/02 04:39:32;;;;;;;29.45;15.65;;;;;;;11.07;91.33;99074.59;1651752;86;26099;-65
2022/11/02 04:42:06;;;;;;;31.73;16.73;;;;;;;11.05;91.63;99087.23;1651628;86;26211;-65
2022/11/02 04:44:38;;;;;;;30.95;16.35;;;;;;;11.10;91.88;99085.77;1654600;86;25478;-64
2022/11/02 04:47:14;;;;;;;31.05;16.23;;;;;;;11.14;91.79;99088.72;1655078;86;26488;-65
2022/11/02 04:49:41;;;;;;;28.23;15.98;;;;;;;11.17;91.75;99089.48;1654456;86;25698;-65
2022/11/02 04:52:08;;;;;;;31.48;16.35;;;;;;;11.20;91.63;99080.61;1654918;86;27437;-65
2022/11/02 04:54:34;;;;;;;34.08;17.37;;;;;;;11.24;91.53;99075.33;1655330;86;25467;-65
2022/11/02 04:57:01;;;;;;;30.08;15.63;;;;;;;11.24;91.40;99080.81;1654825;86;25667;-65
2022/11/02 04:59:27;;;;;;;33.00;15.68;;;;;;;11.22;91.42;99077.01;1655084;86;25771;-65
2022/11/02 05:01:53;;;;;;;29.07;16.10;;;;;;;11.23;91.50;99072.34;1655407;86;25622;-65
2022/11/02 05:04:19;;;;;;;32.10;16.25;;;;;;;11.22;91.39;99073.44;1655303;86;27416;-64
2022/11/02 05:06:45;;;;;;;31.48;17.40;;;;;;;11.24;91.41;99073.95;1654806;86;27162;-65
2022/11/02 05:09:11;;;;;;;26.60;14.98;;;;;;;11.23;91.25;99078.63;1654905;86;25657;-65
2022/11/02 05:11:37;;;;;;;29.77;16.25;;;;;;;11.23;91.31;99075.88;1655262;86;25687;-65
2022/11/02 05:14:03;;;;;;;31.15;16.25;;;;;;;11.24;91.30;99074.78;1655160;86;25730;-65
2022/11/02 05:16:29;;;;;;;30.75;14.78;;;;;;;11.27;91.44;99070.59;1654894;86;27414;-65
2022/11/02 05:18:57;;;;;;;28.92;14.78;;;;;;;11.28;91.41;99069.47;1655067;86;25553;-65
2022/11/02 05:21:23;;;;;;;30.12;15.43;;;;;;;11.30;91.25;99072.73;1655235;86;25512;-65
2022/11/02 05:23:49;;;;;;;29.50;15.70;;;;;;;11.28;91.25;99068.92;1654797;86;27879;-65
2022/11/02 05:26:15;;;;;;;31.55;15.70;;;;;;;11.28;91.24;99072.21;1654949;86;25694;-65
2022/11/02 05:28:42;;;;;;;25.02;13.05;;;;;;;11.28;91.15;99073.03;1654736;86;45381;-65
2022/11/02 05:31:08;;;;;;;31.90;17.12;;;;;;;11.28;91.16;99075.78;1654860;86;25471;-64
2022/11/02 05:33:35;;;;;;;28.75;15.58;;;;;;;11.27;91.10;99074.72;1655197;86;25511;-64
2022/11/02 05:36:01;;;;;;;27.93;15.38;;;;;;;11.26;91.06;99075.27;1651501;86;26594;-65
2022/11/02 05:38:28;;;;;;;30.70;16.80;;;;;;;11.27;91.01;99076.09;1633814;87;25665;-64
2022/11/02 05:40:57;;;;;;;25.15;14.33;;;;;;;11.25;90.99;99079.14;1633670;87;27104;-65
2022/11/02 05:43:25;;;;;;;28.75;14.43;;;;;;;11.24;91.09;99079.44;1633560;87;25679;-65
2022/11/02 05:45:59;;;;;;;24.98;14.87;;;;;;;11.23;91.15;99080.57;1633407;87;25647;-65
2022/11/02 05:48:27;;;;;;;27.32;15.00;;;;;;;11.21;91.33;99079.51;1633575;87;25905;-65
2022/11/02 05:51:02;;;;;;;31.60;17.85;;;;;;;11.19;91.41;99080.36;1633359;87;25474;-65
2022/11/02 05:53:38;;;;;;;28.62;15.75;;;;;;;11.13;91.48;99079.67;1633597;87;28199;-64
2022/11/02 05:56:07;;;;;;;24.70;14.15;;;;;;;11.08;91.61;99066.05;1633533;87;25429;-64
2022/11/02 05:58:33;;;;;;;27.50;14.90;;;;;;;11.04;91.42;99067.24;1633641;87;25498;-65
2022/11/02 06:01:02;;;;;;;26.52;15.23;;;;;;;11.01;91.32;99069.77;1633491;87;25819;-65
2022/11/02 06:03:29;;;;;;;27.65;15.48;;;;;;;10.96;91.27;99077.55;1633381;87;25655;-65
2022/11/02 06:06:08;;;;;;;29.12;15.55;;;;;;;10.91;91.25;99075.72;1633608;87;27487;-64
2022/11/02 06:08:36;;;;;;;29.10;16.23;;;;;;;10.89;91.09;99077.98;1633459;87;25957;-64
2022/11/02 06:11:09;;;;;;;29.92;16.10;;;;;;;10.86;91.12;99075.84;1633374;87;25457;-64
2022/11/02 06:13:37;;;;;;;27.32;16.20;;;;;;;10.82;90.90;99080.88;1633563;87;25686;-65
2022/11/02 06:16:08;;;;;;;27.65;16.57;;;;;;;10.78;90.91;99088.88;1633386;87;25655;-65
2022/11/02 06:18:35;;;;;;;;;;;;;;;10.69;90.67;99108.52;1636176;87;28049;-65
2022/11/02 06:21:01;;;;;;;30.23;17.77;;;;;;;10.70;91.17;99104.66;1633512;87;25532;-65
2022/11/02 06:23:29;;;;;;;28.90;16.87;;;;;;;10.70;91.24;99097.80;1633260;87;25517;-64
2022/11/02 06:25:58;;;;;;;29.25;16.25;;;;;;;10.68;91.25;99096.73;1633204;87;25733;-64
2022/11/02 06:28:24;;;;;;;31.42;16.37;;;;;;;10.69;91.24;99097.55;1633672;87;25585;-64
2022/11/02 06:30:51;;;;;;;30.37;16.42;;;;;;;10.70;91.38;99095.88;1633317;87;26725;-65
2022/11/02 06:33:19;;;;;;;28.85;16.50;;;;;;;10.72;91.19;99096.95;1633368;87;25512;-65
2022/11/02 06:35:53;;;;;;;30.85;15.55;;;;;;;10.69;91.44;99098.92;1636143;86;25606;-65
2022/11/02 06:38:20;;;;;;;29.15;15.80;;;;;;;10.70;91.84;99095.06;1654462;86;25701;-64
2022/11/02 06:40:59;;;;;;;30.72;16.02;;;;;;;10.72;91.86;99095.58;1651513;86;25789;-65
2022/11/02 06:43:25;;;;;;;32.28;16.57;;;;;;;10.75;91.88;99092.23;1656556;86;27525;-65
2022/11/02 06:45:57;;;;;;;32.30;17.27;;;;;;;10.74;91.93;99099.63;1655848;86;25705;-65
2022/11/02 06:48:25;;;;;;;33.58;17.77;;;;;;;10.77;92.13;99102.34;1656217;86;25536;-64
2022/11/02 06:50:52;;;;;;;35.23;18.35;;;;;;;10.83;92.16;99093.45;1656488;86;26426;-65
2022/11/02 06:53:18;;;;;;;33.02;17.85;;;;;;;10.91;92.18;99099.61;1655671;86;25645;-65
2022/11/02 06:55:44;;;;;;;30.82;16.57;;;;;;;10.95;92.01;99106.10;1656165;86;27510;-64
2022/11/02 06:58:11;;;;;;;29.52;16.85;;;;;;;10.96;91.95;99107.71;1636937;86;25693;-64
2022/11/02 07:00:37;;;;;;;33.05;17.73;;;;;;;11.00;92.01;99107.92;1657948;86;25688;-64
2022/11/02 07:03:08;;;;;;;35.23;19.65;;;;;;;11.07;91.93;99104.20;1656252;86;25911;-64
2022/11/02 07:05:36;;;;;;;38.48;19.40;;;;;;;11.08;91.48;99108.56;1656389;86;25648;-64
2022/11/02 07:08:03;;;;;;;34.88;17.75;;;;;;;11.10;91.50;99104.97;1656180;86;27618;-64
2022/11/02 07:10:29;;;;;;;39.08;20.37;;;;;;;11.18;91.83;99113.04;1656306;86;25609;-64
2022/11/02 07:12:57;;;;;;;29.42;17.17;;;;;;;11.25;91.65;99109.86;1656649;86;25468;-64
2022/11/02 07:15:25;;;;;;;31.42;17.27;;;;;;;11.33;91.57;99109.16;1656471;86;25707;-65
2022/11/02 07:17:52;;;;;;;29.48;16.85;;;;;;;11.44;91.70;99114.41;1656375;86;25469;-64
2022/11/02 07:20:19;;;;;;;34.05;19.30;;;;;;;11.55;91.03;99109.75;1656062;86;27569;-65
2022/11/02 07:22:58;;;;;;;35.78;21.40;;;;;;;11.64;90.69;99133.73;1656273;86;25676;-64
2022/11/02 07:25:29;;;;;;;33.13;18.55;;;;;;;11.66;90.23;99123.27;1655536;86;25449;-65
2022/11/02 07:27:58;;;;;;;32.25;17.85;;;;;;;11.69;90.77;99133.63;1656350;86;26106;-64
2022/11/02 07:30:27;;;;;;;32.20;17.48;;;;;;;11.78;90.43;99130.95;1656198;86;25664;-64
2022/11/02 07:32:54;;;;;;;29.75;16.30;;;;;;;11.81;90.12;99135.83;1655070;86;27934;-64
2022/11/02 07:35:24;;;;;;;30.37;16.85;;;;;;;11.81;89.73;99128.96;1656081;86;25696;-64
2022/11/02 07:38:03;;;;;;;35.98;19.85;;;;;;;11.80;89.31;99124.02;1634850;86;25641;-64
2022/11/02 07:40:31;;;;;;;30.82;16.23;;;;;;;11.84;89.90;99122.85;1630594;88;26438;-65
2022/11/02 07:42:58;;;;;;;30.48;16.02;;;;;;;11.93;89.84;99129.78;1626847;87;26408;-65
2022/11/02 07:45:25;;;;;;;38.20;24.00;;;;;;;11.97;89.47;99128.61;1630496;88;28283;-64
2022/11/02 07:47:52;;;;;;;28.10;16.52;;;;;;;11.90;88.70;99135.89;1630341;88;25774;-64
2022/11/02 07:50:21;;;;;;;27.90;16.02;;;;;;;11.82;89.12;99131.13;1630465;88;25627;-64
2022/11/02 07:52:52;;;;;;;28.38;16.80;;;;;;;11.78;89.20;99139.19;1630586;88;25658;-64
2022/11/02 07:55:23;;;;;;;26.82;14.80;;;;;;;11.77;89.60;99138.92;1629956;86;25689;-65
2022/11/02 07:57:57;;;;;;;;;;;;;;;11.77;89.58;99132.87;1631459;88;27416;-64
2022/11/02 08:00:26;;;;;;;29.48;16.12;;;;;;;11.76;88.60;99134.01;1630476;87;25678;-64
2022/11/02 08:02:56;;;;;;;30.45;17.10;;;;;;;11.71;88.65;99134.70;1630596;88;25802;-64
2022/11/02 08:05:43;;;;;;;33.30;19.02;;;;;;;11.73;89.09;99130.51;1630276;88;25881;-64
2022/11/02 08:08:28;;;;;;;30.70;15.90;;;;;;;11.80;89.11;99131.44;1629489;88;25622;-64
2022/11/02 08:11:08;;;;;;;29.90;17.00;;;;;;;11.82;88.85;99125.09;1630415;88;27482;-64
2022/11/02 08:13:36;;;;;;;31.33;15.98;;;;;;;11.97;89.20;99118.41;1630688;88;25591;-64
2022/11/02 08:16:04;;;;;;;28.10;15.50;;;;;;;12.08;88.24;99125.88;1630324;88;25693;-64
2022/11/02 08:18:31;;;;;;;27.70;15.05;;;;;;;12.15;88.24;99133.11;1630710;88;25911;-64
2022/11/02 08:20:58;;;;;;;31.00;15.90;;;;;;;12.25;87.95;99131.23;1630682;88;25685;-64
2022/11/02 08:23:26;;;;;;;31.90;17.30;;;;;;;12.27;87.63;99133.12;1630775;87;27473;-64
2022/11/02 08:25:54;;;;;;;35.28;18.92;;;;;;;12.29;88.23;99128.92;1630706;88;25501;-64
2022/11/02 08:28:24;;;;;;;39.25;24.67;;;;;;;12.36;87.77;99129.05;1625519;87;25733;-64
2022/11/02 08:30:52;;;;;;;31.12;16.00;;;;;;;12.45;87.64;99126.34;1630723;88;26554;-64
2022/11/02 08:33:20;;;;;;;29.25;15.35;;;;;;;12.50;87.40;99132.53;1630712;88;25460;-64
2022/11/02 08:35:48;;;;;;;30.43;17.27;;;;;;;12.60;87.25;99135.56;1630653;88;27450;-64
2022/11/02 08:38:16;;;;;;;25.75;14.38;;;;;;;12.70;87.06;99129.55;1630288;86;25509;-64
2022/11/02 08:40:43;;;;;;;25.08;14.33;;;;;;;12.80;86.49;99121.83;1630825;88;25703;-64
2022/11/02 08:43:12;;;;;;;32.25;16.90;;;;;;;12.80;86.49;99121.83;1630445;88;25878;-65
2022/11/02 08:45:41;;;;;;;29.10;15.28;;;;;;;12.98;86.39;99130.14;1630770;88;25525;-64
2022/11/02 08:48:08;;;;;;;33.02;17.12;;;;;;;13.16;85.53;99133.75;1630615;88;28302;-64
2022/11/02 08:50:35;;;;;;;25.82;15.30;;;;;;;13.41;85.68;99145.70;1626938;88;25730;-64
2022/11/02 08:53:03;;;;;;;27.77;16.45;;;;;;;13.60;84.24;99140.51;1630714;87;25633;-64
2022/11/02 08:55:30;;;;;;;27.55;16.27;;;;;;;13.74;83.72;99125.22;1630473;88;25682;-64
2022/11/02 08:57:58;;;;;;;28.90;16.65;;;;;;;14.01;82.91;99130.14;1630340;88;25646;-64
2022/11/02 09:00:29;;;;;;;35.60;18.90;;;;;;;14.79;82.04;99122.05;1630616;88;27400;-64
2022/11/02 09:03:05;;;;;;;28.45;17.15;;;;;;;14.79;82.04;99122.05;1630495;88;25685;-64
2022/11/02 09:05:34;;;;;;;30.12;16.95;;;;;;;15.17;79.82;99112.94;1630807;88;25681;-65
2022/11/02 09:08:04;;;;;;;28.52;16.30;;;;;;;15.55;79.49;99122.27;1630907;88;25636;-65
2022/11/02 09:10:34;;;;;;;28.65;16.02;;;;;;;16.02;79.31;99114.14;1630843;88;25512;-65
2022/11/02 09:13:04;;;;;;;24.90;15.10;;;;;;;16.51;75.45;99117.63;1630644;88;28508;-65
2022/11/02 09:15:33;;;;;;;25.37;14.03;;;;;;;17.01;74.32;99114.12;1630549;88;25654;-65
2022/11/02 09:18:01;;;;;;;27.63;15.90;;;;;;;17.52;74.04;99110.15;1630697;88;25618;-65
2022/11/02 09:20:28;;;;;;;23.47;15.72;;;;;;;17.89;72.53;99091.22;1630569;88;26046;-65
2022/11/02 09:22:54;;;;;;;24.52;14.58;;;;;;;18.41;71.75;99108.09;1630383;88;25470;-64
2022/11/02 09:25:21;;;;;;;25.30;16.05;;;;;;;18.71;71.32;99102.11;1630475;88;27477;-65
2022/11/02 09:27:53;;;;;;;24.45;15.83;;;;;;;18.97;68.31;99106.91;1630743;87;25672;-65
2022/11/02 09:30:20;;;;;;;24.55;15.68;;;;;;;19.06;69.56;99102.77;1629834;87;25974;-65
2022/11/02 09:33:02;;;;;;;26.55;17.00;;;;;;;19.37;68.95;99103.09;1630332;88;25779;-64
2022/11/02 09:35:31;;;;;;;27.20;20.52;;;;;;;19.85;67.80;99102.70;1630808;88;25433;-62
2022/11/02 09:37:58;;;;;;;24.55;14.85;;;;;;;20.15;63.60;99100.14;1631291;84;27469;-62
2022/11/02 09:40:44;;;;;;;28.62;19.17;;;;;;;20.20;62.40;99102.43;1647056;86;25650;-64
2022/11/02 09:43:36;;;;;;;23.75;14.45;;;;;;;20.30;64.25;99106.78;1630625;87;25727;-64
2022/11/02 09:46:16;;;;;;;21.07;13.85;;;;;;;20.56;63.31;99105.25;1639967;87;25756;-64
2022/11/02 09:48:59;;;;;;;20.92;13.58;;;;;;;20.73;61.38;99114.31;1646629;86;25694;-63
2022/11/02 09:51:38;;;;;;;22.65;14.13;;;;;;;21.01;61.26;99109.01;1628983;86;25587;-62
2022/11/02 09:54:34;;;;;;;19.87;13.15;;;;;;;21.32;60.08;99111.85;1630037;88;25469;-63
2022/11/02 09:57:18;;;;;;;18.52;13.60;;;;;;;21.48;57.25;99109.49;1630123;88;25488;-62
2022/11/02 09:59:44;;;;;;;16.37;12.30;;;;;;;21.76;60.53;99109.09;1630553;88;25747;-63
2022/11/02 10:02:31;;;;;;;18.45;12.40;;;;;;;21.98;56.56;99105.17;1630386;88;25629;-62
2022/11/02 10:05:11;;;;;;;17.10;12.45;;;;;;;22.30;58.58;99103.33;1630221;86;29514;-62
2022/11/02 10:08:14;;;;;;;17.07;12.45;;;;;;;22.70;57.54;99102.92;1630954;86;25948;-63
2022/11/02 10:10:58;;;;;;;15.23;12.03;;;;;;;23.02;57.06;99098.20;1630300;86;25645;-62
2022/11/02 10:13:45;;;;;;;15.23;11.28;;;;;;;23.28;56.27;99095.56;1630436;88;27818;-62
2022/11/02 10:16:22;;;;;;;17.15;11.25;;;;;;;23.55;52.69;99099.55;1630492;88;25679;-63
2022/11/02 10:18:53;;;;;;;14.70;11.43;;;;;;;23.90;52.72;99099.51;1629809;86;27444;-63
2022/11/02 10:21:30;;;;;;;14.60;11.30;;;;;;;23.99;52.36;99099.72;1632231;86;25564;-63
2022/11/02 10:24:01;;;;;;;14.70;10.75;;;;;;;24.10;50.62;99106.17;1633839;86;25678;-63
2022/11/02 10:26:34;;;;;;;17.52;13.15;;;;;;;23.80;50.71;99103.05;1629362;86;26404;-63
2022/11/02 10:29:16;;;;;;;12.07;9.90;;;;;;;23.84;51.51;99101.08;1625680;87;25449;-63
2022/11/02 10:31:43;;;;;;;13.08;10.23;;;;;;;23.61;48.59;99102.18;1630683;88;27511;-63
2022/11/02 10:34:23;;;;;;;13.68;9.73;;;;;;;23.47;50.02;99097.89;1630497;88;25691;-62
2022/11/02 10:37:34;;;;;;;11.25;8.90;;;;;;;23.54;48.33;99095.13;1630335;88;25441;-63
2022/11/02 10:40:38;;;;;;;13.68;10.48;;;;;;;23.30;49.41;99098.19;1629445;88;25886;-62
2022/11/02 10:43:39;;;;;;;15.70;10.25;;;;;;;23.52;50.87;99094.73;1571710;91;25701;-62
2022/11/02 10:46:38;;;;;;;12.82;10.00;;;;;;;23.65;48.93;99088.19;1571592;91;27436;-62
2022/11/02 10:49:32;;;;;;;15.30;11.10;;;;;;;23.91;48.65;99077.90;1572073;91;25737;-62
2022/11/02 10:51:58;;;;;;;13.15;10.28;;;;;;;24.09;48.53;99070.95;1571840;91;25716;-63
2022/11/02 10:54:26;;;;;;;13.05;9.48;;;;;;;24.43;48.94;99074.04;1571796;91;25691;-62
2022/11/02 10:56:54;;;;;;;13.20;9.08;;;;;;;24.48;46.64;99064.45;1571483;91;25585;-62
2022/11/02 10:59:22;;;;;;;14.87;8.90;;;;;;;24.51;46.33;99063.06;1551296;91;27440;-62
2022/11/02 11:02:05;;;;;;;12.65;9.43;;;;;;;24.78;47.97;99068.25;1568004;91;25527;-62
2022/11/02 11:04:30;;;;;;;10.98;8.25;;;;;;;24.89;47.17;99060.45;1566826;90;25648;-63
2022/11/02 11:07:04;;;;;;;10.43;8.73;;;;;;;24.85;45.39;99063.84;1568396;91;25750;-62
2022/11/02 11:09:48;;;;;;;10.98;7.83;;;;;;;25.12;45.23;99066.23;1568011;91;25484;-62
2022/11/02 11:12:33;;;;;;;10.55;8.13;;;;;;;25.39;43.65;99065.78;1568126;91;27268;-62
2022/11/02 11:15:03;;;;;;;9.95;7.55;;;;;;;24.90;44.41;99067.69;1568077;91;25746;-62
2022/11/02 11:17:39;;;;;;;9.78;7.22;;;;;;;25.04;45.57;99068.28;1567734;91;25759;-62
2022/11/02 11:20:13;;;;;;;8.60;7.03;;;;;;;25.46;44.65;99068.56;1573962;90;25836;-62
2022/11/02 11:22:40;;;;;;;12.98;8.58;;;;;;;25.26;42.99;99063.41;1564926;91;25601;-62
2022/11/02 11:25:22;;;;;;;9.05;7.22;;;;;;;25.16;43.73;99065.02;1577423;91;27464;-62
2022/11/02 11:27:55;;;;;;;10.23;8.10;;;;;;;25.20;44.35;99062.22;1577339;91;25477;-62
2022/11/02 11:30:31;;;;;;;10.90;7.87;;;;;;;25.33;43.91;99067.41;1577408;90;25589;-62
2022/11/02 11:33:00;;;;;;;9.45;7.22;;;;;;;25.34;42.81;99062.80;1577399;89;25707;-62
2022/11/02 11:35:37;;;;;;;8.05;6.87;;;;;;;25.18;44.19;99060.41;1577590;91;25766;-62
2022/11/02 11:38:11;;;;;;;8.95;7.40;;;;;;;25.12;43.65;99050.81;1577108;91;27393;-62
2022/11/02 11:40:44;;;;;;;8.90;7.58;;;;;;;25.25;43.92;99052.59;1576829;91;25480;-62
2022/11/02 11:43:14;;;;;;;9.70;7.37;;;;;;;25.30;43.54;99054.38;1577595;89;25625;-62
2022/11/02 11:46:03;;;;;;;9.18;7.40;;;;;;;25.27;43.61;99050.98;1577471;89;25750;-62
2022/11/02 11:48:43;;;;;;;8.83;7.20;;;;;;;25.24;42.97;99054.59;1577307;91;25545;-62
2022/11/02 11:51:27;;;;;;;10.50;8.43;;;;;;;25.19;42.41;99048.02;1607921;88;28273;-62
2022/11/02 11:54:22;;;;;;;8.28;7.08;;;;;;;25.14;43.33;99044.20;1603573;89;25463;-62
2022/11/02 11:56:52;;;;;;;9.18;6.65;;;;;;;25.24;43.31;99047.58;1603949;89;25656;-62